createdAt,value
2023-02-14T00:00:30.269Z,101160.66
2023-02-14T00:01:34.076Z,101165.00
2023-02-14T00:02:37.812Z,101161.19
2023-02-14T00:03:41.873Z,101166.09
2023-02-14T00:04:45.577Z,101155.75
2023-02-14T00:05:49.259Z,101162.25
2023-02-14T00:06:52.956Z,101165.50
2023-02-14T00:07:58.251Z,101138.06
2023-02-14T00:09:02.197Z,101150.81
2023-02-14T00:10:06.612Z,101164.69
2023-02-14T00:11:10.636Z,101166.59
2023-02-14T00:12:14.325Z,101161.44
2023-02-14T00:13:17.962Z,101142.66
2023-02-14T00:14:21.537Z,101171.44
2023-02-14T00:15:25.244Z,101133.44
2023-02-14T00:16:29.043Z,101094.03
2023-02-14T00:17:32.736Z,101170.09
2023-02-14T00:18:36.431Z,101155.16
2023-02-14T00:19:40.112Z,101174.72
2023-02-14T00:20:43.802Z,101180.44
2023-02-14T00:21:48.249Z,101178.50
2023-02-14T00:22:52.950Z,101163.28
2023-02-14T00:23:58.280Z,101187.47
2023-02-14T00:25:02.041Z,101185.56
2023-02-14T00:26:06.032Z,101183.66
2023-02-14T00:27:09.762Z,101167.88
2023-02-14T00:28:13.417Z,101095.94
2023-02-14T00:29:18.476Z,101176.31
2023-02-14T00:30:22.764Z,101138.88
2023-02-14T00:31:26.721Z,101177.38
2023-02-14T00:32:30.911Z,101182.78
2023-02-14T00:33:34.647Z,101182.78
2023-02-14T00:34:38.270Z,101098.66
2023-02-14T00:35:41.944Z,101151.31
2023-02-14T00:36:46.254Z,101178.38
2023-02-14T00:37:49.961Z,101188.16
2023-02-14T00:38:53.597Z,101153.94
2023-02-14T00:39:58.867Z,101181.06
2023-02-14T00:41:02.713Z,101178.66
2023-02-14T00:42:06.342Z,101183.00
2023-02-14T00:43:09.950Z,101160.75
2023-02-14T00:44:14.056Z,101167.53
2023-02-14T00:45:17.771Z,101187.66
2023-02-14T00:46:23.652Z,101166.16
2023-02-14T00:47:27.761Z,101184.06
2023-02-14T00:48:31.401Z,101175.59
2023-02-14T00:49:35.081Z,101189.66
2023-02-14T00:50:38.727Z,101143.50
2023-02-14T00:51:42.494Z,101186.66
2023-02-14T00:52:46.158Z,101194.50
2023-02-14T00:53:51.121Z,101184.72
2023-02-14T00:54:54.790Z,101172.50
2023-02-14T00:56:00.134Z,101208.84
2023-02-14T00:57:03.818Z,101202.53
2023-02-14T00:58:07.469Z,101198.44
2023-02-14T00:59:11.316Z,101212.31
2023-02-14T01:00:16.143Z,101210.69
2023-02-14T01:01:20.392Z,101148.66
2023-02-14T01:02:24.143Z,101191.56
2023-02-14T01:03:28.246Z,101202.19
2023-02-14T01:04:31.939Z,101213.84
2023-02-14T01:05:35.630Z,101157.19
2023-02-14T01:06:39.352Z,101215.00
2023-02-14T01:07:43.074Z,101208.19
2023-02-14T01:08:46.798Z,101227.16
2023-02-14T01:09:50.433Z,101180.41
2023-02-14T01:10:54.160Z,101226.22
2023-02-14T01:11:59.528Z,101225.41
2023-02-14T01:13:03.178Z,101223.72
2023-02-14T01:14:06.922Z,101223.91
2023-02-14T01:15:11.239Z,101220.09
2023-02-14T01:16:17.275Z,101221.38
2023-02-14T01:17:29.981Z,101186.94
2023-02-14T01:18:33.980Z,101210.41
2023-02-14T01:19:37.663Z,101222.13
2023-02-14T01:20:45.747Z,101212.69
2023-02-14T01:21:49.541Z,101228.94
2023-02-14T01:22:53.377Z,101225.28
2023-02-14T01:25:15.404Z,101225.94
2023-02-14T01:26:20.111Z,101233.47
2023-02-14T01:27:40.271Z,101228.47
2023-02-14T01:28:44.590Z,101240.69
2023-02-14T01:29:48.250Z,101234.72
2023-02-14T01:30:56.087Z,101224.72
2023-02-14T01:31:59.819Z,101241.56
2023-02-14T01:33:03.489Z,101235.00
2023-02-14T01:34:07.234Z,101250.69
2023-02-14T01:35:11.486Z,101209.28
2023-02-14T01:36:20.296Z,101247.31
2023-02-14T01:37:23.960Z,101256.47
2023-02-14T01:38:27.608Z,101181.13
2023-02-14T01:39:31.299Z,101262.84
2023-02-14T01:41:51.852Z,101253.84
2023-02-14T01:42:57.147Z,101268.31
2023-02-14T01:44:02.391Z,101272.69
2023-02-14T01:45:08.950Z,101262.84
2023-02-14T01:46:42.333Z,101227.56
2023-02-14T01:47:51.307Z,101271.50
2023-02-14T01:48:59.775Z,101273.50
2023-02-14T01:50:08.823Z,101274.69
2023-02-14T01:51:13.047Z,101279.59
2023-02-14T01:52:31.845Z,101283.97
2023-02-14T01:53:35.520Z,101272.53
2023-02-14T01:54:42.563Z,101266.56
2023-02-14T01:56:05.031Z,101286.81
2023-02-14T01:57:12.102Z,101295.50
2023-02-14T01:58:21.086Z,101292.97
2023-02-14T01:59:29.149Z,101295.81
2023-02-14T02:00:33.022Z,101292.31
2023-02-14T02:01:36.805Z,101216.47
2023-02-14T02:03:13.179Z,101292.28
2023-02-14T02:04:11.054Z,101296.47
2023-02-14T02:05:16.715Z,101290.00
2023-02-14T02:06:24.570Z,101293.00
2023-02-14T02:07:30.193Z,101296.84
2023-02-14T02:08:37.892Z,101280.81
2023-02-14T02:09:47.027Z,101297.97
2023-02-14T02:10:50.716Z,101287.34
2023-02-14T02:11:54.416Z,101254.19
2023-02-14T02:13:04.324Z,101288.19
2023-02-14T02:14:15.298Z,101301.78
2023-02-14T02:15:19.206Z,101304.00
2023-02-14T02:16:47.016Z,101283.53
2023-02-14T02:18:02.029Z,101294.72
2023-02-14T02:19:28.994Z,101297.16
2023-02-14T02:21:03.165Z,101295.94
2023-02-14T02:22:27.666Z,101252.28
2023-02-14T02:24:00.428Z,101303.19
2023-02-14T02:25:22.704Z,101307.97
2023-02-14T02:27:13.443Z,101309.53
2023-02-14T02:28:45.923Z,101310.50
2023-02-14T02:30:20.684Z,101305.28
2023-02-14T02:31:56.422Z,101312.09
2023-02-14T02:33:37.268Z,101295.59
2023-02-14T02:35:12.496Z,101318.47
2023-02-14T02:36:43.377Z,101312.63
2023-02-14T02:37:59.769Z,101316.84
2023-02-14T02:39:18.657Z,101313.44
2023-02-14T02:40:36.607Z,101304.66
2023-02-14T02:41:49.396Z,101308.94
2023-02-14T02:43:07.103Z,101323.03
2023-02-14T02:44:16.555Z,101325.25
2023-02-14T02:45:29.510Z,101294.28
2023-02-14T02:46:39.916Z,101246.16
2023-02-14T02:47:54.051Z,101322.06
2023-02-14T02:49:05.464Z,101319.81
2023-02-14T02:50:22.678Z,101317.13
2023-02-14T02:51:33.880Z,101317.13
2023-02-14T02:52:43.681Z,101322.16
2023-02-14T02:53:52.615Z,101325.19
2023-02-14T02:55:04.450Z,101243.84
2023-02-14T02:56:15.793Z,101322.88
2023-02-14T02:57:27.391Z,101252.09
2023-02-14T02:58:35.896Z,101319.91
2023-02-14T02:59:42.748Z,101321.50
2023-02-14T03:00:48.178Z,101322.47
2023-02-14T03:01:57.694Z,101312.63
2023-02-14T03:03:01.523Z,101265.56
2023-02-14T03:04:08.492Z,101250.31
2023-02-14T03:05:12.542Z,101320.00
2023-02-14T03:06:16.183Z,101315.22
2023-02-14T03:07:22.132Z,101314.63
2023-02-14T03:08:25.822Z,101317.09
2023-02-14T03:09:55.104Z,101316.19
2023-02-14T03:10:59.158Z,101316.28
2023-02-14T03:12:13.589Z,101315.00
2023-02-14T03:13:48.908Z,101318.03
2023-02-14T03:14:59.356Z,101313.31
2023-02-14T03:16:24.859Z,101317.78
2023-02-14T03:17:37.556Z,101311.22
2023-02-14T03:18:51.530Z,101309.06
2023-02-14T03:20:03.115Z,101312.84
2023-02-14T03:21:14.053Z,101304.47
2023-02-14T03:22:29.804Z,101304.31
2023-02-14T03:23:39.037Z,101257.34
2023-02-14T03:24:48.661Z,101270.22
2023-02-14T03:26:04.573Z,101279.09
2023-02-14T03:27:16.121Z,101296.44
2023-02-14T03:28:27.838Z,101295.75
2023-02-14T03:29:42.423Z,101302.19
2023-02-14T03:30:53.246Z,101305.44
2023-02-14T03:32:01.840Z,101298.06
2023-02-14T03:33:11.662Z,101294.44
2023-02-14T03:34:21.390Z,101302.06
2023-02-14T03:35:30.778Z,101285.22
2023-02-14T03:36:38.917Z,101288.28
2023-02-14T03:37:49.438Z,101293.00
2023-02-14T03:39:01.234Z,101249.53
2023-02-14T03:40:10.365Z,101270.53
2023-02-14T03:41:19.250Z,101284.13
2023-02-14T03:42:26.786Z,101260.56
2023-02-14T03:43:33.957Z,101279.53
2023-02-14T03:44:38.778Z,101275.75
2023-02-14T03:45:47.367Z,101283.50
2023-02-14T03:46:54.801Z,101278.31
2023-02-14T03:48:02.840Z,101278.31
2023-02-14T03:49:10.359Z,101271.06
2023-02-14T03:50:17.704Z,101274.97
2023-02-14T03:51:24.116Z,101277.75
2023-02-14T03:52:30.545Z,101263.38
2023-02-14T03:53:39.758Z,101274.03
2023-02-14T03:54:44.085Z,101268.31
2023-02-14T03:55:55.234Z,101266.78
2023-02-14T03:57:06.616Z,101276.41
2023-02-14T03:58:13.687Z,101274.53
2023-02-14T03:59:20.924Z,101268.44
2023-02-14T04:00:24.990Z,101246.84
2023-02-14T04:01:34.641Z,101260.41
2023-02-14T04:02:41.769Z,101259.91
2023-02-14T04:03:47.129Z,101267.94
2023-02-14T04:04:53.692Z,101239.38
2023-02-14T04:05:57.904Z,101260.13
2023-02-14T04:07:08.559Z,101248.22
2023-02-14T04:08:12.717Z,101253.84
2023-02-14T04:09:18.077Z,101247.41
2023-02-14T04:10:22.817Z,101252.56
2023-02-14T04:11:26.583Z,101241.84
2023-02-14T04:12:37.677Z,101248.78
2023-02-14T04:13:41.874Z,101217.47
2023-02-14T04:14:45.636Z,101239.09
2023-02-14T04:15:49.262Z,101247.56
2023-02-14T04:16:52.899Z,101241.63
2023-02-14T04:17:56.533Z,101240.00
2023-02-14T04:19:00.182Z,101213.09
2023-02-14T04:20:03.889Z,101237.69
2023-02-14T04:21:07.802Z,101211.50
2023-02-14T04:22:11.509Z,101235.31
2023-02-14T04:23:15.131Z,101233.72
2023-02-14T04:24:20.707Z,101231.41
2023-02-14T04:25:24.528Z,101205.81
2023-02-14T04:26:28.294Z,101219.50
2023-02-14T04:27:31.863Z,101230.97
2023-02-14T04:28:35.696Z,101211.00
2023-02-14T04:29:40.738Z,101220.94
2023-02-14T04:30:44.401Z,101220.72
2023-02-14T04:31:48.214Z,101222.22
2023-02-14T04:32:51.913Z,101218.44
2023-02-14T04:33:55.552Z,101151.81
2023-02-14T04:34:59.163Z,101209.09
2023-02-14T04:36:02.942Z,101213.47
2023-02-14T04:37:06.986Z,101216.25
2023-02-14T04:38:10.634Z,101192.63
2023-02-14T04:39:14.295Z,101212.13
2023-02-14T04:40:19.728Z,101209.19
2023-02-14T04:41:23.313Z,101192.38
2023-02-14T04:42:26.995Z,101208.47
2023-02-14T04:43:30.692Z,101197.94
2023-02-14T04:44:34.605Z,101197.13
2023-02-14T04:45:38.224Z,101151.97
2023-02-14T04:46:41.883Z,101197.34
2023-02-14T04:47:45.561Z,101181.59
2023-02-14T04:48:49.184Z,101160.50
2023-02-14T04:49:52.904Z,101187.16
2023-02-14T04:50:56.650Z,101178.91
2023-02-14T04:52:00.327Z,101173.31
2023-02-14T04:53:04.181Z,101179.94
2023-02-14T04:54:07.795Z,101179.88
2023-02-14T04:55:12.003Z,101177.22
2023-02-14T04:56:17.261Z,101160.44
2023-02-14T04:57:20.980Z,101175.94
2023-02-14T04:58:24.670Z,101177.22
2023-02-14T04:59:28.474Z,101169.97
2023-02-14T05:00:32.261Z,101172.72
2023-02-14T05:01:36.129Z,101169.66
2023-02-14T05:02:40.453Z,101172.16
2023-02-14T05:03:44.099Z,101164.44
2023-02-14T05:04:49.683Z,101164.28
2023-02-14T05:05:53.452Z,101156.44
2023-02-14T05:06:57.069Z,101166.72
2023-02-14T05:08:00.706Z,101146.59
2023-02-14T05:09:05.196Z,101163.94
2023-02-14T05:10:09.761Z,101129.78
2023-02-14T05:11:13.407Z,101160.09
2023-02-14T05:12:19.106Z,101159.81
2023-02-14T05:13:22.807Z,101146.44
2023-02-14T05:14:26.445Z,101145.00
2023-02-14T05:15:30.181Z,101134.03
2023-02-14T05:16:33.887Z,101143.97
2023-02-14T05:17:37.954Z,101146.06
2023-02-14T05:18:41.693Z,101143.47
2023-02-14T05:19:46.101Z,101135.38
2023-02-14T05:20:51.196Z,101139.28
2023-02-14T05:21:54.773Z,101138.72
2023-02-14T05:22:58.421Z,101131.91
2023-02-14T05:24:02.171Z,101102.47
2023-02-14T05:25:06.084Z,101107.59
2023-02-14T05:26:09.673Z,101090.56
2023-02-14T05:27:13.304Z,101112.44
2023-02-14T05:28:18.817Z,101055.97
2023-02-14T05:29:22.496Z,101090.09
2023-02-14T05:30:26.177Z,101063.78
2023-02-14T05:31:30.090Z,101117.69
2023-02-14T05:32:33.771Z,101112.47
2023-02-14T05:33:37.528Z,101079.16
2023-02-14T05:34:41.180Z,101097.91
2023-02-14T05:35:44.964Z,101087.63
2023-02-14T05:36:48.586Z,101080.94
2023-02-14T05:37:52.302Z,101093.38
2023-02-14T05:38:55.927Z,101094.44
2023-02-14T05:39:59.555Z,101082.63
2023-02-14T05:41:03.464Z,101081.25
2023-02-14T05:42:07.109Z,101086.84
2023-02-14T05:43:11.028Z,101092.78
2023-02-14T05:44:16.324Z,101087.44
2023-02-14T05:45:20.114Z,101080.53
2023-02-14T05:46:23.789Z,101079.84
2023-02-14T05:47:27.537Z,101078.84
2023-02-14T05:48:31.197Z,101071.44
2023-02-14T05:49:36.192Z,101068.06
2023-02-14T05:50:39.853Z,101062.97
2023-02-14T05:51:43.490Z,101062.31
2023-02-14T05:52:47.088Z,101045.91
2023-02-14T05:53:50.746Z,101050.97
2023-02-14T05:54:54.571Z,101040.81
2023-02-14T05:55:58.208Z,101047.66
2023-02-14T05:57:01.832Z,101032.63
2023-02-14T05:58:05.559Z,101030.78
2023-02-14T05:59:09.217Z,101033.56
2023-02-14T06:00:16.175Z,101017.91
2023-02-14T06:01:20.215Z,101030.69
2023-02-14T06:02:23.894Z,100983.44
2023-02-14T06:03:27.895Z,101017.25
2023-02-14T06:04:31.777Z,101015.63
2023-02-14T06:05:35.428Z,101013.38
2023-02-14T06:06:39.036Z,100993.34
2023-02-14T06:07:42.695Z,101009.03
2023-02-14T06:08:46.340Z,101002.41
2023-02-14T06:09:50.069Z,101004.00
2023-02-14T06:10:53.693Z,100998.72
2023-02-14T06:11:57.353Z,100993.03
2023-02-14T06:13:01.173Z,100993.06
2023-02-14T06:14:04.906Z,100982.09
2023-02-14T06:15:09.161Z,100984.81
2023-02-14T06:16:14.496Z,100985.00
2023-02-14T06:17:18.184Z,100976.75
2023-02-14T06:18:21.780Z,100973.03
2023-02-14T06:19:25.340Z,100978.31
2023-02-14T06:20:29.373Z,100981.69
2023-02-14T06:21:32.990Z,100979.75
2023-02-14T06:22:36.685Z,100962.31
2023-02-14T06:23:40.266Z,100927.09
2023-02-14T06:24:44.016Z,100973.50
2023-02-14T06:25:47.738Z,100968.50
2023-02-14T06:26:51.382Z,100961.56
2023-02-14T06:27:57.614Z,100883.31
2023-02-14T06:29:01.355Z,100959.31
2023-02-14T06:30:06.446Z,100949.13
2023-02-14T06:31:15.749Z,100947.38
2023-02-14T06:32:21.169Z,100942.84
2023-02-14T06:33:24.857Z,100902.13
2023-02-14T06:34:28.502Z,100944.97
2023-02-14T06:35:32.121Z,100942.53
2023-02-14T06:36:35.768Z,100937.53
2023-02-14T06:37:39.446Z,100935.41
2023-02-14T06:38:43.165Z,100936.53
2023-02-14T06:39:46.881Z,100933.50
2023-02-14T06:40:50.543Z,100927.84
2023-02-14T06:41:54.162Z,100921.22
2023-02-14T06:42:58.013Z,100923.50
2023-02-14T06:44:01.638Z,100894.03
2023-02-14T06:45:05.919Z,100919.59
2023-02-14T06:46:09.811Z,100914.59
2023-02-14T06:47:13.498Z,100911.69
2023-02-14T06:48:18.812Z,100908.41
2023-02-14T06:49:22.502Z,100901.78
2023-02-14T06:50:26.150Z,100901.97
2023-02-14T06:51:29.787Z,100863.22
2023-02-14T06:52:33.521Z,100882.75
2023-02-14T06:53:37.356Z,100855.44
2023-02-14T06:54:41.578Z,100900.41
2023-02-14T06:55:45.217Z,100871.38
2023-02-14T06:56:48.776Z,100888.66
2023-02-14T06:57:52.417Z,100881.69
2023-02-14T06:58:56.085Z,100862.03
2023-02-14T06:59:59.694Z,100873.63
2023-02-14T07:01:03.445Z,100865.41
2023-02-14T07:02:07.274Z,100863.47
2023-02-14T07:03:10.934Z,100862.34
2023-02-14T07:04:16.297Z,100853.94
2023-02-14T07:05:19.918Z,100799.19
2023-02-14T07:06:23.532Z,100853.13
2023-02-14T07:07:27.153Z,100848.59
2023-02-14T07:08:30.711Z,100850.88
2023-02-14T07:09:34.455Z,100849.41
2023-02-14T07:10:38.154Z,100824.53
2023-02-14T07:11:41.708Z,100839.72
2023-02-14T07:12:45.432Z,100830.69
2023-02-14T07:13:49.617Z,100836.19
2023-02-14T07:14:53.380Z,100813.56
2023-02-14T07:15:57.734Z,100822.13
2023-02-14T07:17:01.448Z,100824.88
2023-02-14T07:18:05.454Z,100823.28
2023-02-14T07:19:09.043Z,100812.28
2023-02-14T07:20:15.486Z,100811.31
2023-02-14T07:21:19.136Z,100809.38
2023-02-14T07:22:22.763Z,100806.00
2023-02-14T07:23:26.468Z,100816.50
2023-02-14T07:24:30.161Z,100813.75
2023-02-14T07:25:33.976Z,100808.44
2023-02-14T07:26:37.537Z,100809.03
2023-02-14T07:27:41.575Z,100803.22
2023-02-14T07:28:45.520Z,100798.69
2023-02-14T07:29:49.228Z,100782.56
2023-02-14T07:30:53.091Z,100799.16
2023-02-14T07:31:56.838Z,100783.84
2023-02-14T07:33:00.529Z,100779.63
2023-02-14T07:34:04.118Z,100793.19
2023-02-14T07:35:08.525Z,100795.63
2023-02-14T07:36:13.971Z,100793.97
2023-02-14T07:37:17.771Z,100781.06
2023-02-14T07:38:21.432Z,100786.53
2023-02-14T07:39:25.020Z,100778.66
2023-02-14T07:40:28.673Z,100779.75
2023-02-14T07:41:32.370Z,100770.91
2023-02-14T07:42:35.983Z,100777.19
2023-02-14T07:43:39.648Z,100774.91
2023-02-14T07:44:43.312Z,100783.47
2023-02-14T07:45:46.872Z,100771.50
2023-02-14T07:46:50.588Z,100765.41
2023-02-14T07:47:55.626Z,100763.13
2023-02-14T07:48:59.194Z,100756.03
2023-02-14T07:50:02.941Z,100756.19
2023-02-14T07:51:06.573Z,100767.47
2023-02-14T07:52:12.050Z,100752.94
2023-02-14T07:53:15.685Z,100753.25
2023-02-14T07:54:20.298Z,100754.66
2023-02-14T07:55:24.413Z,100683.38
2023-02-14T07:56:28.212Z,100711.28
2023-02-14T07:57:31.986Z,100747.09
2023-02-14T07:58:35.642Z,100733.72
2023-02-14T07:59:39.708Z,100744.53
2023-02-14T08:00:43.579Z,100736.00
2023-02-14T08:01:47.336Z,100739.72
2023-02-14T08:02:51.052Z,100742.94
2023-02-14T08:03:54.695Z,100727.16
2023-02-14T08:04:58.337Z,100744.25
2023-02-14T08:06:02.062Z,100738.06
2023-02-14T08:07:05.807Z,100736.94
2023-02-14T08:08:11.167Z,100730.31
2023-02-14T08:09:14.838Z,100663.59
2023-02-14T08:10:18.769Z,100716.13
2023-02-14T08:11:22.376Z,100728.91
2023-02-14T08:12:26.091Z,100722.13
2023-02-14T08:13:30.200Z,100714.34
2023-02-14T08:14:33.882Z,100720.66
2023-02-14T08:15:37.523Z,100721.47
2023-02-14T08:16:41.157Z,100696.31
2023-02-14T08:17:44.847Z,100720.78
2023-02-14T08:18:48.583Z,100714.19
2023-02-14T08:19:52.230Z,100721.31
2023-02-14T08:20:55.917Z,100710.81
2023-02-14T08:21:59.611Z,100714.03
2023-02-14T08:23:03.336Z,100719.84
2023-02-14T08:24:08.955Z,100683.69
2023-02-14T08:25:12.659Z,100708.38
2023-02-14T08:26:16.346Z,100696.16
2023-02-14T08:27:19.958Z,100722.72
2023-02-14T08:28:23.842Z,100712.69
2023-02-14T08:29:27.648Z,100713.66
2023-02-14T08:30:31.383Z,100703.00
2023-02-14T08:31:36.502Z,100700.44
2023-02-14T08:32:40.560Z,100715.72
2023-02-14T08:33:44.259Z,100710.56
2023-02-14T08:34:48.446Z,100660.50
2023-02-14T08:35:53.034Z,100716.69
2023-02-14T08:36:56.658Z,100686.56
2023-02-14T08:38:00.404Z,100712.34
2023-02-14T08:39:05.631Z,100706.50
2023-02-14T08:40:11.951Z,100710.53
2023-02-14T08:41:15.639Z,100708.94
2023-02-14T08:42:19.359Z,100704.56
2023-02-14T08:43:22.941Z,100693.91
2023-02-14T08:44:26.774Z,100694.03
2023-02-14T08:45:30.494Z,100701.31
2023-02-14T08:46:34.190Z,100700.50
2023-02-14T08:47:38.260Z,100707.63
2023-02-14T08:48:41.955Z,100692.91
2023-02-14T08:49:45.560Z,100683.09
2023-02-14T08:50:49.331Z,100702.19
2023-02-14T08:51:52.984Z,100683.34
2023-02-14T08:52:56.699Z,100703.34
2023-02-14T08:54:00.406Z,100684.59
2023-02-14T08:55:04.081Z,100694.44
2023-02-14T08:56:10.970Z,100689.75
2023-02-14T08:57:14.603Z,100703.28
2023-02-14T08:58:18.216Z,100708.13
2023-02-14T08:59:21.863Z,100697.63
2023-02-14T09:00:25.617Z,100688.31
2023-02-14T09:01:29.513Z,100710.22
2023-02-14T09:02:33.237Z,100687.22
2023-02-14T09:03:38.432Z,100706.06
2023-02-14T09:04:42.313Z,100706.06
2023-02-14T09:05:45.907Z,100700.75
2023-02-14T09:06:49.692Z,100699.78
2023-02-14T09:07:53.839Z,100703.66
2023-02-14T09:08:57.604Z,100709.31
2023-02-14T09:10:01.312Z,100703.81
2023-02-14T09:11:11.038Z,100710.91
2023-02-14T09:12:15.032Z,100644.84
2023-02-14T09:13:18.728Z,100706.88
2023-02-14T09:14:22.517Z,100704.63
2023-02-14T09:15:26.207Z,100709.16
2023-02-14T09:16:29.962Z,100706.72
2023-02-14T09:17:33.800Z,100663.22
2023-02-14T09:18:37.606Z,100708.19
2023-02-14T09:19:41.511Z,100713.59
2023-02-14T09:20:49.816Z,100711.19
2023-02-14T09:21:53.515Z,100711.53
2023-02-14T09:23:05.306Z,100708.13
2023-02-14T09:24:08.973Z,100709.72
2023-02-14T09:25:12.951Z,100711.34
2023-02-14T09:26:18.975Z,100697.00
2023-02-14T09:27:22.609Z,100706.34
2023-02-14T09:28:26.403Z,100698.13
2023-02-14T09:29:30.294Z,100701.50
2023-02-14T09:30:33.918Z,100706.84
2023-02-14T09:31:37.586Z,100701.03
2023-02-14T09:32:41.285Z,100672.00
2023-02-14T09:33:46.154Z,100705.53
2023-02-14T09:34:49.781Z,100652.66
2023-02-14T09:35:53.446Z,100690.75
2023-02-14T09:36:57.186Z,100702.53
2023-02-14T09:38:00.833Z,100697.81
2023-02-14T09:39:04.851Z,100681.72
2023-02-14T09:40:09.618Z,100689.47
2023-02-14T09:41:38.279Z,100707.03
2023-02-14T09:43:01.958Z,100708.97
2023-02-14T09:44:11.876Z,100704.81
2023-02-14T09:45:18.593Z,100709.31
2023-02-14T09:46:24.659Z,100703.34
2023-02-14T09:47:36.571Z,100669.47
2023-02-14T09:48:45.810Z,100708.53
2023-02-14T09:49:51.334Z,100711.44
2023-02-14T09:50:57.528Z,100712.41
2023-02-14T09:52:03.827Z,100706.28
2023-02-14T09:53:16.659Z,100691.56
2023-02-14T09:54:25.140Z,100703.84
2023-02-14T09:55:36.955Z,100705.44
2023-02-14T09:56:51.536Z,100712.88
2023-02-14T09:58:07.332Z,100696.25
2023-02-14T09:59:17.909Z,100652.53
2023-02-14T10:00:29.622Z,100700.28
2023-02-14T10:01:37.590Z,100710.59
2023-02-14T10:02:49.703Z,100665.28
2023-02-14T10:04:21.202Z,100681.56
2023-02-14T10:05:28.022Z,100699.00
2023-02-14T10:06:47.051Z,100694.66
2023-02-14T10:07:58.612Z,100686.56
2023-02-14T10:09:11.755Z,100700.94
2023-02-14T10:10:20.470Z,100674.97
2023-02-14T10:11:25.226Z,100697.22
2023-02-14T10:12:35.021Z,100700.59
2023-02-14T10:13:44.119Z,100695.09
2023-02-14T10:14:48.896Z,100704.63
2023-02-14T10:15:59.990Z,100695.06
2023-02-14T10:17:11.168Z,100703.50
2023-02-14T10:18:21.253Z,100697.66
2023-02-14T10:19:29.061Z,100712.16
2023-02-14T10:20:36.554Z,100691.34
2023-02-14T10:21:47.871Z,100707.50
2023-02-14T10:22:58.595Z,100708.28
2023-02-14T10:24:12.162Z,100708.75
2023-02-14T10:25:21.886Z,100676.78
2023-02-14T10:26:30.928Z,100720.81
2023-02-14T10:27:38.300Z,100717.44
2023-02-14T10:28:46.355Z,100707.91
2023-02-14T10:29:50.180Z,100718.69
2023-02-14T10:31:00.821Z,100720.47
2023-02-14T10:32:15.047Z,100724.84
2023-02-14T10:33:29.152Z,100694.97
2023-02-14T10:34:40.634Z,100715.28
2023-02-14T10:35:48.589Z,100730.41
2023-02-14T10:37:04.770Z,100725.56
2023-02-14T10:38:25.164Z,100676.28
2023-02-14T10:39:43.636Z,100731.47
2023-02-14T10:41:02.870Z,100740.72
2023-02-14T10:42:17.923Z,100666.38
2023-02-14T10:43:33.282Z,100660.81
2023-02-14T10:44:50.321Z,100732.09
2023-02-14T10:46:08.258Z,100733.88
2023-02-14T10:47:27.382Z,100713.47
2023-02-14T10:48:44.519Z,100737.03
2023-02-14T10:49:55.612Z,100734.44
2023-02-14T10:51:05.798Z,100729.91
2023-02-14T10:52:23.559Z,100692.84
2023-02-14T10:53:34.974Z,100735.72
2023-02-14T10:54:41.135Z,100734.22
2023-02-14T10:55:51.373Z,100734.06
2023-02-14T10:57:00.840Z,100735.16
2023-02-14T10:58:06.753Z,100733.56
2023-02-14T10:59:18.558Z,100742.06
2023-02-14T11:00:27.206Z,100741.06
2023-02-14T11:01:30.942Z,100737.59
2023-02-14T11:02:41.229Z,100744.44
2023-02-14T11:03:53.930Z,100737.66
2023-02-14T11:04:58.405Z,100697.56
2023-02-14T11:06:02.095Z,100736.63
2023-02-14T11:07:12.731Z,100745.28
2023-02-14T11:08:22.421Z,100744.63
2023-02-14T11:09:26.184Z,100727.66
2023-02-14T11:10:33.700Z,100742.19
2023-02-14T11:11:41.683Z,100743.91
2023-02-14T11:12:45.324Z,100745.34
2023-02-14T11:13:49.686Z,100722.53
2023-02-14T11:15:11.158Z,100708.94
2023-02-14T11:16:31.820Z,100768.16
2023-02-14T11:17:35.553Z,100715.19
2023-02-14T11:18:42.406Z,100755.41
2023-02-14T11:19:58.001Z,100740.28
2023-02-14T11:21:04.932Z,100754.03
2023-02-14T11:22:08.544Z,100722.91
2023-02-14T11:23:33.070Z,100764.56
2023-02-14T11:24:38.762Z,100770.53
2023-02-14T11:25:43.233Z,100760.50
2023-02-14T11:26:49.437Z,100774.69
2023-02-14T11:27:59.566Z,100780.44
2023-02-14T11:29:05.214Z,100762.66
2023-02-14T11:30:21.288Z,100786.44
2023-02-14T11:31:32.741Z,100787.34
2023-02-14T11:32:37.058Z,100772.19
2023-02-14T11:33:43.659Z,100792.00
2023-02-14T11:34:53.938Z,100790.38
2023-02-14T11:35:58.922Z,100778.09
2023-02-14T11:37:17.353Z,100770.06
2023-02-14T11:38:29.339Z,100799.22
2023-02-14T11:39:35.464Z,100810.16
2023-02-14T11:40:40.523Z,100800.63
2023-02-14T11:41:52.401Z,100814.78
2023-02-14T11:43:13.334Z,100817.44
2023-02-14T11:44:20.400Z,100817.16
2023-02-14T11:45:35.553Z,100823.03
2023-02-14T11:46:52.272Z,100824.16
2023-02-14T11:48:10.553Z,100831.81
2023-02-14T11:49:31.655Z,100829.50
2023-02-14T11:50:35.480Z,100829.81
2023-02-14T11:51:44.870Z,100836.59
2023-02-14T11:52:52.340Z,100783.84
2023-02-14T11:53:58.201Z,100831.44
2023-02-14T11:55:02.401Z,100834.88
2023-02-14T11:56:06.665Z,100823.31
2023-02-14T11:57:14.461Z,100797.69
2023-02-14T11:58:32.002Z,100831.41
2023-02-14T11:59:41.632Z,100825.00
2023-02-14T12:00:53.867Z,100854.69
2023-02-14T12:02:02.189Z,100851.41
2023-02-14T12:03:07.990Z,100847.00
2023-02-14T12:04:18.542Z,100857.53
2023-02-14T12:05:27.155Z,100841.22
2023-02-14T12:06:33.336Z,100838.56
2023-02-14T12:08:01.506Z,100848.59
2023-02-14T12:09:24.684Z,100840.28
2023-02-14T12:10:29.876Z,100858.13
2023-02-14T12:11:33.544Z,100845.06
2023-02-14T12:12:37.451Z,100847.97
2023-02-14T12:13:41.431Z,100864.28
2023-02-14T12:14:45.136Z,100859.28
2023-02-14T12:15:54.811Z,100859.28
2023-02-14T12:17:05.548Z,100863.94
2023-02-14T12:18:50.616Z,100849.28
2023-02-14T12:20:04.882Z,100851.69
2023-02-14T12:21:40.303Z,100845.41
2023-02-14T12:22:50.650Z,100847.03
2023-02-14T12:24:03.983Z,100848.38
2023-02-14T12:25:16.561Z,100851.69
2023-02-14T12:26:29.268Z,100842.88
2023-02-14T12:27:41.336Z,100859.06
2023-02-14T12:28:50.556Z,100833.56
2023-02-14T12:29:59.185Z,100855.50
2023-02-14T12:31:03.199Z,100864.69
2023-02-14T12:32:17.423Z,100872.91
2023-02-14T12:33:23.347Z,100859.41
2023-02-14T12:34:27.099Z,100863.28
2023-02-14T12:35:44.979Z,100872.78
2023-02-14T12:37:14.393Z,100880.03
2023-02-14T12:38:26.133Z,100888.72
2023-02-14T12:39:36.413Z,100889.03
2023-02-14T12:40:54.669Z,100856.72
2023-02-14T12:42:06.502Z,100895.97
2023-02-14T12:43:36.077Z,100895.16
2023-02-14T12:44:48.971Z,100863.81
2023-02-14T12:46:14.619Z,100829.25
2023-02-14T12:47:23.774Z,100897.81
2023-02-14T12:48:39.319Z,100896.06
2023-02-14T12:50:03.840Z,100884.97
2023-02-14T12:51:16.081Z,100895.59